createdAt,value
2023-06-09T00:01:00.599Z,17.20
2023-06-09T00:03:29.137Z,17.20
2023-06-09T00:06:00.432Z,17.10
2023-06-09T00:08:29.799Z,17.10
2023-06-09T00:10:58.814Z,17.10
2023-06-09T00:13:27.860Z,17.10
2023-06-09T00:15:57.291Z,17.00
2023-06-09T00:18:25.856Z,17.00
2023-06-09T00:20:55.171Z,16.90
2023-06-09T00:23:25.653Z,16.90
2023-06-09T00:25:54.009Z,16.80
2023-06-09T00:28:23.508Z,16.70
2023-06-09T00:30:52.509Z,16.60
2023-06-09T00:33:21.189Z,16.50
2023-06-09T00:35:50.702Z,16.50
2023-06-09T00:38:19.664Z,16.30
2023-06-09T00:40:51.843Z,16.30
2023-06-09T00:43:21.027Z,16.30
2023-06-09T00:45:50.122Z,16.20
2023-06-09T00:48:19.036Z,16.20
2023-06-09T00:50:47.756Z,16.20
2023-06-09T00:53:17.945Z,16.10
2023-06-09T00:55:46.423Z,16.10
2023-06-09T00:58:17.426Z,16.00
2023-06-09T01:00:46.085Z,15.90
2023-06-09T01:03:15.214Z,15.80
2023-06-09T01:05:45.587Z,15.80
2023-06-09T01:08:22.313Z,15.80
2023-06-09T01:11:00.040Z,15.70
2023-06-09T01:13:40.301Z,15.80
2023-06-09T01:16:15.847Z,15.80
2023-06-09T01:18:46.230Z,15.70
2023-06-09T01:21:36.769Z,15.70
2023-06-09T01:24:18.579Z,15.70
2023-06-09T01:26:51.897Z,15.70
2023-06-09T01:29:22.750Z,15.60
2023-06-09T01:31:56.293Z,15.60
2023-06-09T01:34:25.341Z,15.70
2023-06-09T01:36:54.804Z,15.70
2023-06-09T01:39:23.688Z,15.70
2023-06-09T01:41:53.987Z,15.70
2023-06-09T01:44:23.013Z,15.70
2023-06-09T01:46:51.700Z,15.50
2023-06-09T01:49:27.036Z,15.60
2023-06-09T01:52:00.651Z,15.60
2023-06-09T01:54:36.701Z,15.50
2023-06-09T01:57:10.701Z,15.50
2023-06-09T01:59:45.261Z,15.50
2023-06-09T02:02:15.274Z,15.40
2023-06-09T02:04:48.116Z,15.40
2023-06-09T02:07:19.648Z,15.40
2023-06-09T02:09:49.325Z,15.30
2023-06-09T02:12:19.814Z,15.30
2023-06-09T02:14:48.813Z,15.20
2023-06-09T02:17:19.295Z,15.20
2023-06-09T02:19:47.871Z,15.20
2023-06-09T02:22:16.986Z,15.10
2023-06-09T02:24:45.579Z,15.10
2023-06-09T02:27:14.141Z,15.10
2023-06-09T02:29:44.580Z,15.00
2023-06-09T02:32:14.557Z,15.00
2023-06-09T02:34:43.283Z,14.90
2023-06-09T02:37:12.409Z,14.90
2023-06-09T02:39:41.124Z,14.80
2023-06-09T02:42:10.036Z,14.90
2023-06-09T02:44:39.484Z,14.80
2023-06-09T02:47:10.080Z,14.80
2023-06-09T02:49:40.947Z,14.80
2023-06-09T02:52:10.925Z,14.80
2023-06-09T02:54:40.877Z,14.80
2023-06-09T02:57:09.650Z,14.80
2023-06-09T02:59:38.242Z,14.80
2023-06-09T03:02:08.982Z,14.80
2023-06-09T03:04:39.401Z,14.70
2023-06-09T03:07:11.002Z,14.70
2023-06-09T03:09:39.784Z,14.60
2023-06-09T03:12:09.506Z,14.50
2023-06-09T03:14:38.645Z,14.40
2023-06-09T03:17:09.563Z,14.40
2023-06-09T03:19:38.824Z,14.40
2023-06-09T03:22:08.291Z,14.50
2023-06-09T03:24:38.302Z,14.50
2023-06-09T03:27:07.157Z,14.60
2023-06-09T03:29:36.169Z,14.60
2023-06-09T03:32:05.482Z,14.60
2023-06-09T03:34:35.748Z,14.60
2023-06-09T03:37:06.124Z,14.50
2023-06-09T03:39:35.334Z,14.50
2023-06-09T03:42:04.083Z,14.50
2023-06-09T03:44:32.736Z,14.50
2023-06-09T03:47:02.136Z,14.50
2023-06-09T03:49:31.381Z,14.50
2023-06-09T03:52:02.088Z,14.50
2023-06-09T03:54:31.578Z,14.50
2023-06-09T03:57:00.238Z,14.60
2023-06-09T03:59:29.004Z,14.70
2023-06-09T04:01:57.855Z,14.70
2023-06-09T04:04:26.784Z,14.70
2023-06-09T04:06:57.423Z,14.60
2023-06-09T04:09:27.606Z,14.60
2023-06-09T04:11:56.581Z,14.60
2023-06-09T04:14:25.575Z,14.70
2023-06-09T04:16:54.329Z,14.60
2023-06-09T04:19:23.690Z,14.60
2023-06-09T04:21:52.687Z,14.50
2023-06-09T04:24:21.962Z,14.50
2023-06-09T04:26:55.237Z,14.50
2023-06-09T04:29:25.066Z,14.50
2023-06-09T04:32:00.568Z,14.50
2023-06-09T04:34:30.020Z,14.50
2023-06-09T04:37:00.459Z,14.50
2023-06-09T04:39:30.642Z,14.60
2023-06-09T04:42:04.597Z,14.70
2023-06-09T04:44:34.818Z,14.70
2023-06-09T04:47:06.387Z,14.70
2023-06-09T04:49:36.526Z,14.70
2023-06-09T04:52:09.077Z,14.80
2023-06-09T04:54:38.079Z,14.90
2023-06-09T04:57:10.819Z,15.00
2023-06-09T04:59:40.518Z,15.10
2023-06-09T05:02:09.336Z,15.20
2023-06-09T05:04:38.536Z,15.30
2023-06-09T05:07:08.000Z,15.30
2023-06-09T05:09:36.957Z,15.40
2023-06-09T05:12:06.300Z,15.60
2023-06-09T05:14:36.709Z,15.70
2023-06-09T05:17:06.450Z,15.90
2023-06-09T05:19:35.224Z,16.00
2023-06-09T05:22:05.603Z,16.10
2023-06-09T05:24:34.417Z,16.20
2023-06-09T05:27:04.505Z,16.40
2023-06-09T05:29:34.227Z,16.40
2023-06-09T05:32:04.970Z,16.60
2023-06-09T05:34:33.680Z,16.70
2023-06-09T05:37:02.717Z,16.90
2023-06-09T05:39:31.293Z,17.00
2023-06-09T05:42:00.954Z,17.10
2023-06-09T05:44:30.286Z,17.30
2023-06-09T05:46:59.609Z,17.60
2023-06-09T05:49:29.996Z,17.90
2023-06-09T05:51:58.564Z,18.40
2023-06-09T05:54:27.616Z,18.90
2023-06-09T05:56:56.595Z,19.30
2023-06-09T05:59:25.647Z,19.70
2023-06-09T06:01:54.255Z,20.10
2023-06-09T06:04:23.155Z,20.70
2023-06-09T06:06:53.335Z,21.20
2023-06-09T06:09:22.093Z,21.80
2023-06-09T06:11:51.292Z,22.30
2023-06-09T06:14:20.084Z,22.70
2023-06-09T06:16:48.496Z,23.30
2023-06-09T06:19:18.126Z,23.40
2023-06-09T06:21:47.081Z,23.60
2023-06-09T06:24:17.427Z,23.80
2023-06-09T06:26:46.198Z,24.10
2023-06-09T06:29:15.763Z,24.30
2023-06-09T06:31:44.690Z,24.20
2023-06-09T06:34:14.121Z,24.00
2023-06-09T06:36:42.780Z,24.40
2023-06-09T06:39:13.588Z,24.60
2023-06-09T06:41:43.912Z,24.40
2023-06-09T06:44:12.586Z,24.90
2023-06-09T06:46:41.682Z,25.00
2023-06-09T06:49:10.521Z,24.90
2023-06-09T06:51:39.491Z,24.40
2023-06-09T06:54:07.940Z,24.40
2023-06-09T06:56:37.770Z,24.20
2023-06-09T06:59:07.842Z,24.40
2023-06-09T07:01:38.742Z,24.80
2023-06-09T07:04:07.754Z,25.50
2023-06-09T07:06:37.193Z,25.90
2023-06-09T07:09:06.481Z,26.40
2023-06-09T07:11:35.538Z,27.00
2023-06-09T07:14:04.031Z,27.40
2023-06-09T07:16:34.131Z,27.80
2023-06-09T07:19:02.966Z,27.80
2023-06-09T07:21:33.548Z,28.40
2023-06-09T07:24:05.276Z,28.80
2023-06-09T07:26:36.552Z,29.10
2023-06-09T07:29:05.161Z,29.00
2023-06-09T07:31:35.373Z,29.80
2023-06-09T07:34:04.893Z,30.40
2023-06-09T07:36:36.383Z,31.10
2023-06-09T07:39:05.745Z,31.50
2023-06-09T07:41:34.491Z,32.10
2023-06-09T07:44:04.068Z,32.50
2023-06-09T07:46:36.608Z,32.80
2023-06-09T07:49:05.580Z,32.70
2023-06-09T07:51:38.357Z,32.80
2023-06-09T07:54:07.571Z,33.40
2023-06-09T07:56:37.316Z,33.90
2023-06-09T07:59:07.292Z,34.40
2023-06-09T08:01:38.568Z,34.90
2023-06-09T08:04:07.261Z,35.20
2023-06-09T08:06:36.948Z,35.30
2023-06-09T08:09:05.743Z,35.50
2023-06-09T08:11:36.379Z,35.70
2023-06-09T08:14:08.356Z,35.90
2023-06-09T08:16:39.192Z,36.20
2023-06-09T08:19:08.362Z,36.40
2023-06-09T08:21:44.949Z,36.30
2023-06-09T08:24:13.825Z,36.30
2023-06-09T08:26:45.389Z,36.70
2023-06-09T08:29:14.548Z,37.10
2023-06-09T08:31:44.939Z,37.20
2023-06-09T08:34:13.854Z,37.20
2023-06-09T08:36:42.473Z,37.20
2023-06-09T08:39:12.624Z,37.20
2023-06-09T08:41:45.699Z,37.40
2023-06-09T08:44:16.635Z,37.50
2023-06-09T08:46:50.995Z,37.60
2023-06-09T08:49:20.672Z,37.70
2023-06-09T08:51:50.698Z,37.80
2023-06-09T08:54:19.577Z,37.80
2023-06-09T08:56:52.476Z,38.00
2023-06-09T08:59:23.189Z,38.30
2023-06-09T09:01:53.569Z,38.50
2023-06-09T09:04:22.785Z,38.40
2023-06-09T09:06:51.855Z,38.10
2023-06-09T09:09:20.696Z,37.80
2023-06-09T09:11:53.472Z,38.10
2023-06-09T09:14:22.937Z,38.20
2023-06-09T09:16:53.327Z,38.40
2023-06-09T09:19:28.408Z,38.60
2023-06-09T09:21:58.842Z,38.60
2023-06-09T09:24:31.187Z,38.30
2023-06-09T09:27:00.079Z,37.80
2023-06-09T09:29:29.953Z,37.30
2023-06-09T09:32:03.092Z,36.40
2023-06-09T09:34:35.735Z,36.60
2023-06-09T09:37:07.787Z,36.90
2023-06-09T09:39:36.970Z,37.20
2023-06-09T09:42:08.833Z,37.70
2023-06-09T09:44:43.435Z,38.00
2023-06-09T09:47:16.640Z,38.00
2023-06-09T09:50:06.489Z,38.50
2023-06-09T09:52:37.111Z,38.20
2023-06-09T09:55:09.934Z,38.30
2023-06-09T09:57:40.660Z,38.20
2023-06-09T10:00:14.746Z,37.60
2023-06-09T10:02:46.948Z,37.20
2023-06-09T10:05:19.781Z,37.70
2023-06-09T10:07:53.488Z,37.80
2023-06-09T10:10:24.483Z,38.20
2023-06-09T10:12:54.865Z,38.80
2023-06-09T10:15:23.818Z,38.70
2023-06-09T10:17:55.790Z,38.60
2023-06-09T10:20:25.327Z,38.80
2023-06-09T10:22:55.008Z,38.90
2023-06-09T10:25:25.770Z,39.00
2023-06-09T10:27:54.537Z,38.80
2023-06-09T10:30:25.006Z,38.80
2023-06-09T10:33:00.405Z,38.80
2023-06-09T10:35:32.852Z,39.10
2023-06-09T10:38:02.634Z,39.30
2023-06-09T10:40:46.283Z,39.00
2023-06-09T10:43:41.180Z,39.20
2023-06-09T10:46:14.300Z,39.40
2023-06-09T10:48:48.999Z,39.00
2023-06-09T10:51:42.652Z,38.90
2023-06-09T10:54:25.293Z,38.70
2023-06-09T10:57:01.987Z,38.60
2023-06-09T11:00:13.262Z,38.70
2023-06-09T11:02:45.464Z,38.60
2023-06-09T11:05:17.072Z,38.80
2023-06-09T11:07:51.280Z,38.90
2023-06-09T11:10:39.064Z,39.00
2023-06-09T11:13:40.275Z,39.10
2023-06-09T11:16:11.452Z,38.90
2023-06-09T11:18:41.065Z,38.60
2023-06-09T11:21:18.036Z,38.60
2023-06-09T11:24:17.625Z,38.50
2023-06-09T11:26:46.323Z,38.50
2023-06-09T11:29:22.802Z,38.50
2023-06-09T11:31:55.951Z,38.50
2023-06-09T11:34:57.343Z,38.30
2023-06-09T11:37:31.908Z,38.40
2023-06-09T11:40:01.177Z,38.50
2023-06-09T11:42:30.657Z,38.30
2023-06-09T11:45:01.901Z,38.00
2023-06-09T11:47:33.036Z,38.00
2023-06-09T11:50:14.771Z,37.90
2023-06-09T11:52:46.847Z,37.70
2023-06-09T11:55:16.840Z,37.60
2023-06-09T11:57:45.488Z,37.60
2023-06-09T12:00:16.590Z,37.60
2023-06-09T12:02:49.828Z,37.50
2023-06-09T12:05:21.076Z,37.50
2023-06-09T12:07:54.539Z,37.30
2023-06-09T12:10:28.005Z,37.10
2023-06-09T12:12:59.632Z,37.00
2023-06-09T12:15:29.895Z,36.70
2023-06-09T12:18:02.965Z,36.20
2023-06-09T12:20:32.986Z,35.90
2023-06-09T12:23:05.916Z,35.80
2023-06-09T12:25:36.673Z,35.50
2023-06-09T12:28:16.219Z,35.30
2023-06-09T12:30:49.180Z,34.90
2023-06-09T12:33:24.439Z,34.60
2023-06-09T12:35:55.421Z,34.10
2023-06-09T12:38:30.040Z,33.80
2023-06-09T12:41:06.972Z,33.60
2023-06-09T12:43:50.587Z,33.50
2023-06-09T12:46:22.350Z,33.20
2023-06-09T12:49:02.686Z,33.00
2023-06-09T12:51:32.289Z,32.90
2023-06-09T12:54:02.713Z,32.90
2023-06-09T12:56:34.820Z,32.90
2023-06-09T12:59:04.870Z,32.90
2023-06-09T13:01:33.600Z,32.80
2023-06-09T13:04:04.213Z,32.70
2023-06-09T13:06:33.594Z,32.50
2023-06-09T13:09:04.431Z,32.40
2023-06-09T13:11:32.994Z,32.20
2023-06-09T13:14:01.820Z,32.20
2023-06-09T13:16:31.357Z,32.20
2023-06-09T13:19:00.301Z,32.20
2023-06-09T13:21:43.784Z,32.20
2023-06-09T13:24:17.820Z,32.00
2023-06-09T13:26:48.234Z,32.10
2023-06-09T13:29:16.846Z,32.00
2023-06-09T13:31:45.408Z,32.00
2023-06-09T13:34:16.611Z,32.00
2023-06-09T13:36:46.660Z,32.00
2023-06-09T13:39:16.630Z,32.20
2023-06-09T13:41:46.079Z,32.20
2023-06-09T13:44:15.506Z,32.40
2023-06-09T13:46:44.079Z,32.40
2023-06-09T13:49:13.479Z,32.30
2023-06-09T13:51:42.769Z,32.40
2023-06-09T13:54:11.759Z,32.30
2023-06-09T13:56:42.333Z,32.40
2023-06-09T13:59:11.195Z,32.40
2023-06-09T14:01:41.607Z,32.40
2023-06-09T14:04:10.371Z,32.30
2023-06-09T14:06:39.719Z,32.10
2023-06-09T14:09:10.123Z,32.10
2023-06-09T14:11:41.030Z,32.20
2023-06-09T14:14:10.343Z,32.20
2023-06-09T14:16:39.230Z,32.20
2023-06-09T14:19:08.824Z,32.20
2023-06-09T14:21:38.367Z,32.30
2023-06-09T14:24:09.926Z,32.30
2023-06-09T14:26:41.715Z,32.30
2023-06-09T14:29:10.317Z,32.20
2023-06-09T14:31:39.405Z,32.10
2023-06-09T14:34:08.450Z,32.20
2023-06-09T14:36:37.083Z,32.10
2023-06-09T14:39:06.301Z,32.10
2023-06-09T14:41:35.621Z,32.10
2023-06-09T14:44:06.591Z,32.10
2023-06-09T14:46:35.862Z,32.00
2023-06-09T14:49:05.099Z,32.00
2023-06-09T14:51:33.866Z,32.00
2023-06-09T14:54:02.449Z,32.00
2023-06-09T14:56:31.838Z,31.90
2023-06-09T14:59:04.054Z,31.90
2023-06-09T15:01:34.333Z,31.90
2023-06-09T15:04:03.116Z,31.90
2023-06-09T15:06:31.995Z,31.80
2023-06-09T15:09:01.495Z,31.80
2023-06-09T15:11:32.041Z,31.80
2023-06-09T15:14:02.503Z,31.80
2023-06-09T15:16:31.368Z,31.70
2023-06-09T15:19:01.675Z,31.70
2023-06-09T15:21:31.503Z,31.70
2023-06-09T15:24:00.442Z,31.70
2023-06-09T15:26:29.117Z,31.70
2023-06-09T15:28:58.749Z,31.50
2023-06-09T15:31:27.741Z,31.50
2023-06-09T15:33:56.572Z,31.50
2023-06-09T15:36:27.794Z,31.40
2023-06-09T15:38:56.363Z,31.40
2023-06-09T15:41:25.687Z,31.30
2023-06-09T15:43:55.937Z,31.30
2023-06-09T15:46:24.732Z,31.40
2023-06-09T15:48:55.584Z,31.30
2023-06-09T15:51:28.085Z,31.20
2023-06-09T15:53:59.253Z,30.90
2023-06-09T15:56:29.992Z,30.90
2023-06-09T15:58:58.407Z,30.80
2023-06-09T16:01:29.388Z,30.70
2023-06-09T16:03:58.033Z,30.60
2023-06-09T16:06:28.464Z,30.50
2023-06-09T16:08:57.312Z,30.40
2023-06-09T16:11:27.191Z,30.40
2023-06-09T16:13:55.677Z,30.30
2023-06-09T16:16:24.245Z,30.30
2023-06-09T16:18:52.970Z,30.20
2023-06-09T16:21:23.913Z,30.10
2023-06-09T16:23:54.301Z,30.00
2023-06-09T16:26:28.350Z,30.00
2023-06-09T16:28:57.514Z,29.90
2023-06-09T16:31:27.297Z,29.70
2023-06-09T16:33:56.215Z,29.60
2023-06-09T16:36:24.786Z,29.50
2023-06-09T16:38:54.877Z,29.40
2023-06-09T16:41:23.811Z,29.30
2023-06-09T16:43:52.501Z,29.20
2023-06-09T16:46:21.889Z,29.10
2023-06-09T16:48:52.259Z,29.00
2023-06-09T16:51:21.305Z,28.90
2023-06-09T16:53:49.883Z,28.90
2023-06-09T16:56:20.074Z,28.90
2023-06-09T16:58:49.142Z,28.80
2023-06-09T17:01:17.724Z,28.70
2023-06-09T17:03:46.666Z,28.80
2023-06-09T17:06:16.913Z,28.70
2023-06-09T17:08:48.656Z,28.70
2023-06-09T17:11:17.172Z,28.60
2023-06-09T17:13:47.338Z,28.60
2023-06-09T17:16:16.459Z,28.70
2023-06-09T17:18:45.244Z,28.70
2023-06-09T17:21:14.170Z,28.70
2023-06-09T17:23:42.915Z,28.60
2023-06-09T17:26:12.235Z,28.70
2023-06-09T17:28:41.851Z,28.60
2023-06-09T17:31:11.820Z,28.60
2023-06-09T17:33:40.574Z,28.50
2023-06-09T17:36:10.371Z,28.40
2023-06-09T17:38:40.001Z,28.20
2023-06-09T17:41:08.527Z,28.20
2023-06-09T17:43:37.377Z,28.10
2023-06-09T17:46:06.460Z,28.00
2023-06-09T17:48:42.094Z,27.90
2023-06-09T17:51:10.807Z,27.80
2023-06-09T17:53:39.641Z,27.70
2023-06-09T17:56:08.959Z,27.60
2023-06-09T17:58:37.725Z,27.60
2023-06-09T18:01:06.542Z,27.40
2023-06-09T18:03:37.754Z,27.30
2023-06-09T18:06:07.200Z,27.20
2023-06-09T18:08:35.602Z,27.10
2023-06-09T18:11:05.510Z,27.00
2023-06-09T18:13:34.475Z,26.90
2023-06-09T18:16:04.221Z,26.90
2023-06-09T18:18:32.845Z,26.80
2023-06-09T18:21:03.277Z,26.80
2023-06-09T18:23:32.095Z,26.70
2023-06-09T18:26:00.906Z,26.60
2023-06-09T18:28:31.874Z,26.50
2023-06-09T18:31:02.484Z,26.40
2023-06-09T18:33:31.505Z,26.40
2023-06-09T18:36:01.035Z,26.20
2023-06-09T18:38:31.760Z,26.20
2023-06-09T18:41:02.023Z,26.20
2023-06-09T18:43:31.617Z,26.00
2023-06-09T18:46:00.616Z,26.00
2023-06-09T18:48:29.567Z,26.00
2023-06-09T18:50:58.479Z,25.90
2023-06-09T18:53:27.854Z,25.80
2023-06-09T18:55:58.369Z,25.80
2023-06-09T18:58:27.408Z,25.70
2023-06-09T19:00:56.678Z,25.70
2023-06-09T19:03:25.184Z,25.60
2023-06-09T19:05:54.872Z,25.50
2023-06-09T19:08:27.439Z,25.50
2023-06-09T19:10:58.202Z,25.40
2023-06-09T19:13:27.602Z,25.40
2023-06-09T19:15:58.124Z,25.30
2023-06-09T19:18:27.648Z,25.20
2023-06-09T19:21:00.125Z,25.20
2023-06-09T19:23:32.476Z,25.10
2023-06-09T19:26:03.700Z,25.00
2023-06-09T19:28:33.182Z,25.00
2023-06-09T19:31:02.617Z,25.00
2023-06-09T19:33:32.346Z,24.90
2023-06-09T19:36:01.085Z,24.90
2023-06-09T19:38:29.935Z,24.90
2023-06-09T19:40:58.646Z,24.80
2023-06-09T19:43:28.887Z,24.70
2023-06-09T19:45:57.588Z,24.70
2023-06-09T19:48:26.606Z,24.70
2023-06-09T19:50:55.529Z,24.60
2023-06-09T19:53:24.140Z,24.70
2023-06-09T19:55:54.747Z,24.60
2023-06-09T19:58:26.790Z,24.60
2023-06-09T20:00:56.924Z,24.60
2023-06-09T20:03:27.604Z,24.60
2023-06-09T20:05:56.583Z,24.60
2023-06-09T20:08:27.517Z,24.50
2023-06-09T20:10:56.229Z,24.50
2023-06-09T20:13:26.045Z,24.50
2023-06-09T20:15:56.645Z,24.50
2023-06-09T20:18:25.774Z,24.40
2023-06-09T20:20:54.970Z,24.40
2023-06-09T20:23:31.226Z,24.30
2023-06-09T20:26:00.107Z,24.20
2023-06-09T20:28:28.883Z,24.20
2023-06-09T20:30:59.256Z,24.10
2023-06-09T20:33:28.067Z,24.00
2023-06-09T20:35:57.974Z,23.90
2023-06-09T20:38:39.593Z,23.80
2023-06-09T20:41:08.934Z,23.80
2023-06-09T20:43:37.383Z,23.60
2023-06-09T20:46:11.022Z,23.50
2023-06-09T20:48:41.263Z,23.50
2023-06-09T20:51:10.249Z,23.40
2023-06-09T20:53:39.491Z,23.30
2023-06-09T20:56:08.653Z,23.30
2023-06-09T20:58:37.937Z,23.20
2023-06-09T21:01:15.104Z,23.10
2023-06-09T21:03:49.001Z,23.00
2023-06-09T21:06:21.391Z,23.00
2023-06-09T21:08:50.680Z,22.90
2023-06-09T21:11:20.130Z,22.90
2023-06-09T21:13:49.550Z,22.90
2023-06-09T21:16:19.596Z,22.90
2023-06-09T21:18:50.343Z,22.80
2023-06-09T21:21:19.744Z,22.80
2023-06-09T21:23:48.729Z,22.70
2023-06-09T21:26:17.344Z,22.70
2023-06-09T21:28:46.037Z,22.50
2023-06-09T21:31:14.800Z,22.50
2023-06-09T21:33:45.070Z,22.40
2023-06-09T21:36:13.985Z,22.40
2023-06-09T21:38:43.304Z,22.30
2023-06-09T21:41:12.208Z,22.20
2023-06-09T21:43:43.565Z,22.20
2023-06-09T21:46:12.154Z,22.10
2023-06-09T21:48:43.639Z,22.00
2023-06-09T21:51:15.887Z,22.00
2023-06-09T21:53:44.953Z,21.90
2023-06-09T21:56:13.747Z,21.90
2023-06-09T21:58:43.875Z,21.80
2023-06-09T22:01:12.887Z,21.70
2023-06-09T22:03:42.262Z,21.60
2023-06-09T22:06:12.722Z,21.60
2023-06-09T22:08:43.788Z,21.60
2023-06-09T22:11:12.784Z,21.50
2023-06-09T22:13:42.085Z,21.40
2023-06-09T22:16:11.034Z,21.30
2023-06-09T22:18:39.733Z,21.30
2023-06-09T22:21:08.470Z,21.20
2023-06-09T22:23:38.041Z,21.10
2023-06-09T22:26:08.688Z,21.00
2023-06-09T22:28:37.607Z,21.00
2023-06-09T22:31:07.500Z,21.00
2023-06-09T22:33:36.091Z,20.90
2023-06-09T22:36:05.808Z,20.80
2023-06-09T22:38:34.634Z,20.70
2023-06-09T22:41:04.474Z,20.70
2023-06-09T22:43:34.827Z,20.70
2023-06-09T22:46:03.556Z,20.60
2023-06-09T22:48:36.856Z,20.60
2023-06-09T22:51:07.133Z,20.50
2023-06-09T22:53:36.261Z,20.40
2023-06-09T22:56:04.497Z,20.40
2023-06-09T22:58:34.555Z,20.30
2023-06-09T23:01:02.885Z,20.30
2023-06-09T23:03:31.074Z,20.20
2023-06-09T23:05:59.925Z,20.10
2023-06-09T23:08:28.190Z,20.00
2023-06-09T23:10:56.468Z,20.00
2023-06-09T23:13:24.921Z,19.90
2023-06-09T23:15:54.557Z,19.90
2023-06-09T23:18:23.304Z,19.80
2023-06-09T23:20:55.455Z,19.80
2023-06-09T23:23:24.296Z,19.80
2023-06-09T23:25:52.501Z,19.70
2023-06-09T23:28:20.725Z,19.70
2023-06-09T23:30:49.055Z,19.70
2023-06-09T23:33:19.518Z,19.70
2023-06-09T23:35:48.024Z,19.70
2023-06-09T23:38:16.477Z,19.70
2023-06-09T23:40:45.499Z,19.60
2023-06-09T23:43:13.733Z,19.50
2023-06-09T23:45:42.137Z,19.40
2023-06-09T23:48:10.424Z,19.30
2023-06-09T23:50:40.240Z,19.30
2023-06-09T23:53:10.896Z,19.30
2023-06-09T23:55:39.549Z,19.20
2023-06-09T23:58:07.828Z,19.10
